sensor_id;sensor_type;location;lat;lon;timestamp;P1;durP1;ratioP1;P2;durP2;ratioP2
28304;SDS011;15569;42.652;23.040;2023-05-14T00:01:36;10.73;;;6.20;;
28304;SDS011;15569;42.652;23.040;2023-05-14T00:04:02;20.45;;;7.65;;
28304;SDS011;15569;42.652;23.040;2023-05-14T00:06:27;9.15;;;5.55;;
28304;SDS011;15569;42.652;23.040;2023-05-14T00:08:53;12.55;;;6.28;;
28304;SDS011;15569;42.652;23.040;2023-05-14T00:11:18;16.40;;;6.13;;
28304;SDS011;15569;42.652;23.040;2023-05-14T00:13:43;12.68;;;6.70;;
28304;SDS011;15569;42.652;23.040;2023-05-14T00:16:10;11.40;;;5.95;;
28304;SDS011;15569;42.652;23.040;2023-05-14T00:18:35;13.35;;;6.38;;
28304;SDS011;15569;42.652;23.040;2023-05-14T00:21:01;12.75;;;7.03;;
28304;SDS011;15569;42.652;23.040;2023-05-14T00:23:26;11.30;;;6.80;;
28304;SDS011;15569;42.652;23.040;2023-05-14T00:25:51;19.38;;;7.03;;
28304;SDS011;15569;42.652;23.040;2023-05-14T00:28:17;14.13;;;6.53;;
28304;SDS011;15569;42.652;23.040;2023-05-14T00:30:43;11.55;;;5.60;;
28304;SDS011;15569;42.652;23.040;2023-05-14T00:33:08;13.73;;;5.57;;
28304;SDS011;15569;42.652;23.040;2023-05-14T00:35:34;10.60;;;6.03;;
28304;SDS011;15569;42.652;23.040;2023-05-14T00:38:00;20.95;;;6.43;;
28304;SDS011;15569;42.652;23.040;2023-05-14T00:40:26;12.05;;;6.13;;
28304;SDS011;15569;42.652;23.040;2023-05-14T00:42:52;10.15;;;5.65;;
28304;SDS011;15569;42.652;23.040;2023-05-14T00:45:18;8.70;;;5.32;;
28304;SDS011;15569;42.652;23.040;2023-05-14T00:47:43;12.07;;;6.85;;
28304;SDS011;15569;42.652;23.040;2023-05-14T00:50:09;12.70;;;5.43;;
28304;SDS011;15569;42.652;23.040;2023-05-14T00:52:36;8.93;;;5.43;;
28304;SDS011;15569;42.652;23.040;2023-05-14T00:55:03;9.00;;;5.50;;
28304;SDS011;15569;42.652;23.040;2023-05-14T00:57:30;9.88;;;5.95;;
28304;SDS011;15569;42.652;23.040;2023-05-14T00:59:56;7.47;;;4.82;;
28304;SDS011;15569;42.652;23.040;2023-05-14T01:02:22;15.00;;;5.30;;
28304;SDS011;15569;42.652;23.040;2023-05-14T01:04:47;11.65;;;6.63;;
28304;SDS011;15569;42.652;23.040;2023-05-14T01:15:36;8.77;;;5.57;;
28304;SDS011;15569;42.652;23.040;2023-05-14T01:18:07;10.70;;;5.80;;
28304;SDS011;15569;42.652;23.040;2023-05-14T01:20:33;10.00;;;6.20;;
28304;SDS011;15569;42.652;23.040;2023-05-14T01:23:00;9.55;;;5.70;;
28304;SDS011;15569;42.652;23.040;2023-05-14T01:25:25;14.18;;;6.28;;
28304;SDS011;15569;42.652;23.040;2023-05-14T01:32:57;14.48;;;5.68;;
28304;SDS011;15569;42.652;23.040;2023-05-14T01:35:26;9.52;;;5.32;;
28304;SDS011;15569;42.652;23.040;2023-05-14T01:37:53;8.38;;;5.72;;
28304;SDS011;15569;42.652;23.040;2023-05-14T01:40:21;11.07;;;6.05;;
28304;SDS011;15569;42.652;23.040;2023-05-14T01:42:47;10.75;;;5.15;;
28304;SDS011;15569;42.652;23.040;2023-05-14T01:45:15;11.18;;;5.13;;
28304;SDS011;15569;42.652;23.040;2023-05-14T01:47:41;11.13;;;5.95;;
28304;SDS011;15569;42.652;23.040;2023-05-14T01:50:07;10.32;;;5.65;;
28304;SDS011;15569;42.652;23.040;2023-05-14T01:52:32;8.27;;;5.13;;
28304;SDS011;15569;42.652;23.040;2023-05-14T01:54:58;10.20;;;5.50;;
28304;SDS011;15569;42.652;23.040;2023-05-14T01:57:24;11.00;;;5.45;;
28304;SDS011;15569;42.652;23.040;2023-05-14T01:59:49;12.35;;;5.57;;
28304;SDS011;15569;42.652;23.040;2023-05-14T02:02:15;9.98;;;5.25;;
28304;SDS011;15569;42.652;23.040;2023-05-14T02:04:40;12.85;;;5.63;;
28304;SDS011;15569;42.652;23.040;2023-05-14T02:07:05;10.70;;;4.82;;
28304;SDS011;15569;42.652;23.040;2023-05-14T02:09:31;9.90;;;4.88;;
28304;SDS011;15569;42.652;23.040;2023-05-14T02:11:56;9.88;;;4.63;;
28304;SDS011;15569;42.652;23.040;2023-05-14T02:14:22;7.32;;;4.43;;
28304;SDS011;15569;42.652;23.040;2023-05-14T02:16:47;7.53;;;4.57;;
28304;SDS011;15569;42.652;23.040;2023-05-14T02:19:13;7.20;;;4.82;;
28304;SDS011;15569;42.652;23.040;2023-05-14T02:21:38;12.13;;;5.57;;
28304;SDS011;15569;42.652;23.040;2023-05-14T02:24:03;7.88;;;4.40;;
28304;SDS011;15569;42.652;23.040;2023-05-14T02:26:29;9.35;;;4.97;;
28304;SDS011;15569;42.652;23.040;2023-05-14T02:28:54;6.50;;;4.78;;
28304;SDS011;15569;42.652;23.040;2023-05-14T02:31:20;5.20;;;4.35;;
28304;SDS011;15569;42.652;23.040;2023-05-14T02:33:45;7.68;;;4.15;;
28304;SDS011;15569;42.652;23.040;2023-05-14T02:36:10;7.57;;;4.53;;
28304;SDS011;15569;42.652;23.040;2023-05-14T02:38:36;8.38;;;5.68;;
28304;SDS011;15569;42.652;23.040;2023-05-14T02:41:01;9.32;;;4.82;;
28304;SDS011;15569;42.652;23.040;2023-05-14T02:43:27;10.25;;;5.20;;
28304;SDS011;15569;42.652;23.040;2023-05-14T02:45:52;8.25;;;4.88;;
28304;SDS011;15569;42.652;23.040;2023-05-14T02:48:17;9.40;;;4.78;;
28304;SDS011;15569;42.652;23.040;2023-05-14T02:50:43;8.80;;;4.95;;
28304;SDS011;15569;42.652;23.040;2023-05-14T02:53:08;8.48;;;4.72;;
28304;SDS011;15569;42.652;23.040;2023-05-14T02:55:34;6.00;;;4.88;;
28304;SDS011;15569;42.652;23.040;2023-05-14T02:58:00;9.55;;;6.20;;
28304;SDS011;15569;42.652;23.040;2023-05-14T03:00:25;9.40;;;6.05;;
28304;SDS011;15569;42.652;23.040;2023-05-14T03:02:50;14.02;;;7.38;;
28304;SDS011;15569;42.652;23.040;2023-05-14T03:05:16;9.98;;;6.60;;
28304;SDS011;15569;42.652;23.040;2023-05-14T03:07:41;9.98;;;5.35;;
28304;SDS011;15569;42.652;23.040;2023-05-14T03:10:07;10.38;;;6.50;;
28304;SDS011;15569;42.652;23.040;2023-05-14T03:12:33;17.02;;;7.32;;
28304;SDS011;15569;42.652;23.040;2023-05-14T03:14:58;13.32;;;6.38;;
28304;SDS011;15569;42.652;23.040;2023-05-14T03:17:23;10.65;;;7.10;;
28304;SDS011;15569;42.652;23.040;2023-05-14T03:19:49;8.05;;;6.28;;
28304;SDS011;15569;42.652;23.040;2023-05-14T03:22:14;13.18;;;6.47;;
28304;SDS011;15569;42.652;23.040;2023-05-14T03:24:40;13.05;;;6.50;;
28304;SDS011;15569;42.652;23.040;2023-05-14T03:27:05;8.68;;;6.13;;
28304;SDS011;15569;42.652;23.040;2023-05-14T03:29:30;13.77;;;6.05;;
28304;SDS011;15569;42.652;23.040;2023-05-14T03:31:56;9.32;;;5.90;;
28304;SDS011;15569;42.652;23.040;2023-05-14T03:34:21;14.60;;;6.15;;
28304;SDS011;15569;42.652;23.040;2023-05-14T03:36:47;11.45;;;5.65;;
28304;SDS011;15569;42.652;23.040;2023-05-14T03:39:12;15.82;;;6.68;;
28304;SDS011;15569;42.652;23.040;2023-05-14T03:41:43;12.65;;;6.32;;
28304;SDS011;15569;42.652;23.040;2023-05-14T03:44:09;19.33;;;8.93;;
28304;SDS011;15569;42.652;23.040;2023-05-14T03:46:34;22.92;;;12.00;;
28304;SDS011;15569;42.652;23.040;2023-05-14T03:49:00;21.73;;;13.13;;
28304;SDS011;15569;42.652;23.040;2023-05-14T03:51:25;14.43;;;7.65;;
28304;SDS011;15569;42.652;23.040;2023-05-14T03:53:50;15.93;;;8.10;;
28304;SDS011;15569;42.652;23.040;2023-05-14T03:56:16;15.32;;;7.18;;
28304;SDS011;15569;42.652;23.040;2023-05-14T03:58:41;11.88;;;6.97;;
28304;SDS011;15569;42.652;23.040;2023-05-14T04:01:06;12.73;;;7.28;;
28304;SDS011;15569;42.652;23.040;2023-05-14T04:03:32;11.68;;;7.63;;
28304;SDS011;15569;42.652;23.040;2023-05-14T04:05:57;15.18;;;7.32;;
28304;SDS011;15569;42.652;23.040;2023-05-14T04:08:23;12.45;;;6.70;;
28304;SDS011;15569;42.652;23.040;2023-05-14T04:10:48;13.68;;;6.80;;
28304;SDS011;15569;42.652;23.040;2023-05-14T04:13:14;13.05;;;7.20;;
28304;SDS011;15569;42.652;23.040;2023-05-14T04:15:39;11.88;;;6.97;;
28304;SDS011;15569;42.652;23.040;2023-05-14T04:18:05;13.10;;;6.75;;
28304;SDS011;15569;42.652;23.040;2023-05-14T04:20:30;13.95;;;7.53;;
28304;SDS011;15569;42.652;23.040;2023-05-14T04:22:55;18.05;;;9.43;;
28304;SDS011;15569;42.652;23.040;2023-05-14T04:25:21;13.95;;;9.20;;
28304;SDS011;15569;42.652;23.040;2023-05-14T04:27:46;12.88;;;7.88;;
28304;SDS011;15569;42.652;23.040;2023-05-14T04:30:12;13.45;;;8.15;;
28304;SDS011;15569;42.652;23.040;2023-05-14T04:32:38;19.52;;;9.73;;
28304;SDS011;15569;42.652;23.040;2023-05-14T04:35:04;22.95;;;12.00;;
28304;SDS011;15569;42.652;23.040;2023-05-14T04:37:29;21.55;;;12.68;;
28304;SDS011;15569;42.652;23.040;2023-05-14T04:39:55;20.40;;;12.38;;
28304;SDS011;15569;42.652;23.040;2023-05-14T04:42:21;19.20;;;10.25;;
28304;SDS011;15569;42.652;23.040;2023-05-14T04:44:46;20.00;;;10.23;;
28304;SDS011;15569;42.652;23.040;2023-05-14T04:47:12;16.80;;;8.73;;
28304;SDS011;15569;42.652;23.040;2023-05-14T04:49:37;13.27;;;8.43;;
28304;SDS011;15569;42.652;23.040;2023-05-14T04:52:03;9.60;;;6.43;;
28304;SDS011;15569;42.652;23.040;2023-05-14T04:54:28;14.45;;;7.22;;
28304;SDS011;15569;42.652;23.040;2023-05-14T04:56:54;13.57;;;6.90;;
28304;SDS011;15569;42.652;23.040;2023-05-14T04:59:20;20.83;;;8.25;;
28304;SDS011;15569;42.652;23.040;2023-05-14T05:01:45;10.55;;;7.65;;
28304;SDS011;15569;42.652;23.040;2023-05-14T05:04:11;19.00;;;8.05;;
28304;SDS011;15569;42.652;23.040;2023-05-14T05:06:36;11.27;;;7.28;;
28304;SDS011;15569;42.652;23.040;2023-05-14T05:09:02;15.50;;;7.28;;
28304;SDS011;15569;42.652;23.040;2023-05-14T05:11:27;12.70;;;7.35;;
28304;SDS011;15569;42.652;23.040;2023-05-14T05:13:53;13.73;;;7.78;;
28304;SDS011;15569;42.652;23.040;2023-05-14T05:16:18;13.32;;;7.72;;
28304;SDS011;15569;42.652;23.040;2023-05-14T05:18:43;16.20;;;8.63;;
28304;SDS011;15569;42.652;23.040;2023-05-14T05:21:09;18.80;;;9.02;;
28304;SDS011;15569;42.652;23.040;2023-05-14T05:23:35;23.73;;;9.27;;
28304;SDS011;15569;42.652;23.040;2023-05-14T05:26:00;16.92;;;8.55;;
28304;SDS011;15569;42.652;23.040;2023-05-14T05:28:25;17.90;;;8.10;;
28304;SDS011;15569;42.652;23.040;2023-05-14T05:30:51;13.20;;;7.60;;
28304;SDS011;15569;42.652;23.040;2023-05-14T05:33:17;13.82;;;7.18;;
28304;SDS011;15569;42.652;23.040;2023-05-14T05:35:42;13.57;;;7.10;;
28304;SDS011;15569;42.652;23.040;2023-05-14T05:38:08;17.75;;;7.35;;
28304;SDS011;15569;42.652;23.040;2023-05-14T05:40:34;11.98;;;7.28;;
28304;SDS011;15569;42.652;23.040;2023-05-14T05:42:59;12.40;;;7.05;;
28304;SDS011;15569;42.652;23.040;2023-05-14T05:45:24;12.00;;;6.53;;
28304;SDS011;15569;42.652;23.040;2023-05-14T05:47:50;19.02;;;6.68;;
28304;SDS011;15569;42.652;23.040;2023-05-14T05:50:15;16.67;;;7.40;;
28304;SDS011;15569;42.652;23.040;2023-05-14T05:52:41;13.35;;;6.85;;
28304;SDS011;15569;42.652;23.040;2023-05-14T05:55:06;12.98;;;6.60;;
28304;SDS011;15569;42.652;23.040;2023-05-14T05:57:32;15.35;;;6.75;;
28304;SDS011;15569;42.652;23.040;2023-05-14T05:59:57;13.48;;;7.82;;
28304;SDS011;15569;42.652;23.040;2023-05-14T06:02:23;11.98;;;7.72;;
28304;SDS011;15569;42.652;23.040;2023-05-14T06:04:49;14.82;;;7.32;;
28304;SDS011;15569;42.652;23.040;2023-05-14T06:07:14;11.02;;;6.55;;
28304;SDS011;15569;42.652;23.040;2023-05-14T06:09:40;19.65;;;6.88;;
28304;SDS011;15569;42.652;23.040;2023-05-14T06:12:06;12.75;;;6.68;;
28304;SDS011;15569;42.652;23.040;2023-05-14T06:14:32;14.35;;;7.32;;
28304;SDS011;15569;42.652;23.040;2023-05-14T06:16:57;8.85;;;6.18;;
28304;SDS011;15569;42.652;23.040;2023-05-14T06:19:22;10.80;;;6.82;;
28304;SDS011;15569;42.652;23.040;2023-05-14T06:21:48;11.25;;;6.00;;
28304;SDS011;15569;42.652;23.040;2023-05-14T06:24:13;9.45;;;5.82;;
28304;SDS011;15569;42.652;23.040;2023-05-14T06:26:40;13.55;;;6.57;;
28304;SDS011;15569;42.652;23.040;2023-05-14T06:29:05;22.75;;;10.90;;
28304;SDS011;15569;42.652;23.040;2023-05-14T06:31:31;19.48;;;10.73;;
28304;SDS011;15569;42.652;23.040;2023-05-14T06:33:56;12.23;;;8.27;;
28304;SDS011;15569;42.652;23.040;2023-05-14T06:36:22;15.35;;;8.60;;
28304;SDS011;15569;42.652;23.040;2023-05-14T06:38:47;13.23;;;8.07;;
28304;SDS011;15569;42.652;23.040;2023-05-14T06:41:13;14.98;;;8.27;;
28304;SDS011;15569;42.652;23.040;2023-05-14T06:43:38;19.63;;;12.25;;
28304;SDS011;15569;42.652;23.040;2023-05-14T06:46:03;22.92;;;14.05;;
28304;SDS011;15569;42.652;23.040;2023-05-14T06:48:29;14.07;;;10.80;;
28304;SDS011;15569;42.652;23.040;2023-05-14T06:50:55;10.52;;;6.85;;
28304;SDS011;15569;42.652;23.040;2023-05-14T06:53:20;10.02;;;7.47;;
28304;SDS011;15569;42.652;23.040;2023-05-14T06:55:46;10.73;;;6.28;;
28304;SDS011;15569;42.652;23.040;2023-05-14T06:58:12;25.98;;;19.02;;
28304;SDS011;15569;42.652;23.040;2023-05-14T07:00:37;18.27;;;11.60;;
28304;SDS011;15569;42.652;23.040;2023-05-14T07:03:02;10.00;;;6.40;;
28304;SDS011;15569;42.652;23.040;2023-05-14T07:05:28;9.55;;;5.45;;
28304;SDS011;15569;42.652;23.040;2023-05-14T07:07:53;7.20;;;5.22;;
28304;SDS011;15569;42.652;23.040;2023-05-14T07:10:19;26.80;;;10.80;;
28304;SDS011;15569;42.652;23.040;2023-05-14T07:12:44;9.48;;;5.82;;
28304;SDS011;15569;42.652;23.040;2023-05-14T07:15:10;6.60;;;4.30;;
28304;SDS011;15569;42.652;23.040;2023-05-14T07:17:36;7.45;;;4.18;;
28304;SDS011;15569;42.652;23.040;2023-05-14T07:20:01;8.40;;;4.80;;
28304;SDS011;15569;42.652;23.040;2023-05-14T07:22:27;8.65;;;6.05;;
28304;SDS011;15569;42.652;23.040;2023-05-14T07:24:52;10.43;;;5.75;;
28304;SDS011;15569;42.652;23.040;2023-05-14T07:27:18;16.05;;;7.50;;
28304;SDS011;15569;42.652;23.040;2023-05-14T07:29:43;9.60;;;5.93;;
28304;SDS011;15569;42.652;23.040;2023-05-14T07:32:09;61.40;;;26.50;;
28304;SDS011;15569;42.652;23.040;2023-05-14T07:34:34;49.25;;;23.00;;
28304;SDS011;15569;42.652;23.040;2023-05-14T07:37:00;162.35;;;66.55;;
28304;SDS011;15569;42.652;23.040;2023-05-14T07:39:26;163.13;;;71.68;;
28304;SDS011;15569;42.652;23.040;2023-05-14T07:41:51;285.25;;;149.18;;
28304;SDS011;15569;42.652;23.040;2023-05-14T07:44:18;87.35;;;53.22;;
28304;SDS011;15569;42.652;23.040;2023-05-14T07:46:44;92.68;;;50.55;;
28304;SDS011;15569;42.652;23.040;2023-05-14T07:49:10;37.00;;;21.42;;
28304;SDS011;15569;42.652;23.040;2023-05-14T07:51:35;22.42;;;12.23;;
28304;SDS011;15569;42.652;23.040;2023-05-14T07:54:00;19.85;;;11.30;;
28304;SDS011;15569;42.652;23.040;2023-05-14T07:56:26;35.75;;;14.75;;
28304;SDS011;15569;42.652;23.040;2023-05-14T07:58:51;34.33;;;11.10;;
28304;SDS011;15569;42.652;23.040;2023-05-14T08:01:17;13.73;;;7.18;;
28304;SDS011;15569;42.652;23.040;2023-05-14T08:03:42;20.50;;;8.73;;
28304;SDS011;15569;42.652;23.040;2023-05-14T08:06:07;7.50;;;5.50;;
28304;SDS011;15569;42.652;23.040;2023-05-14T08:08:33;9.30;;;5.85;;
28304;SDS011;15569;42.652;23.040;2023-05-14T08:10:58;81.45;;;23.88;;
28304;SDS011;15569;42.652;23.040;2023-05-14T08:13:24;31.63;;;12.30;;
28304;SDS011;15569;42.652;23.040;2023-05-14T08:15:49;146.77;;;40.97;;
28304;SDS011;15569;42.652;23.040;2023-05-14T08:18:15;60.10;;;21.05;;
28304;SDS011;15569;42.652;23.040;2023-05-14T08:20:41;22.27;;;10.13;;
28304;SDS011;15569;42.652;23.040;2023-05-14T08:23:06;210.60;;;50.75;;
28304;SDS011;15569;42.652;23.040;2023-05-14T08:25:32;111.90;;;28.70;;
28304;SDS011;15569;42.652;23.040;2023-05-14T08:27:58;17.95;;;8.07;;
28304;SDS011;15569;42.652;23.040;2023-05-14T08:30:23;9.93;;;4.63;;
28304;SDS011;15569;42.652;23.040;2023-05-14T08:32:49;8.82;;;4.68;;
28304;SDS011;15569;42.652;23.040;2023-05-14T08:35:15;24.42;;;8.95;;
28304;SDS011;15569;42.652;23.040;2023-05-14T08:37:41;19.27;;;7.57;;
28304;SDS011;15569;42.652;23.040;2023-05-14T08:40:07;34.45;;;9.45;;
28304;SDS011;15569;42.652;23.040;2023-05-14T08:42:33;74.07;;;16.95;;
28304;SDS011;15569;42.652;23.040;2023-05-14T08:45:02;23.83;;;9.98;;
28304;SDS011;15569;42.652;23.040;2023-05-14T08:47:29;248.00;;;53.08;;
28304;SDS011;15569;42.652;23.040;2023-05-14T08:52:28;40.75;;;13.88;;
28304;SDS011;15569;42.652;23.040;2023-05-14T08:54:54;9.25;;;5.35;;
28304;SDS011;15569;42.652;23.040;2023-05-14T08:57:21;28.27;;;9.98;;
28304;SDS011;15569;42.652;23.040;2023-05-14T08:59:49;62.70;;;22.00;;
28304;SDS011;15569;42.652;23.040;2023-05-14T09:02:15;36.85;;;15.77;;
28304;SDS011;15569;42.652;23.040;2023-05-14T09:04:43;41.72;;;15.30;;
28304;SDS011;15569;42.652;23.040;2023-05-14T09:07:08;39.60;;;15.38;;
28304;SDS011;15569;42.652;23.040;2023-05-14T09:09:35;7.43;;;5.90;;
28304;SDS011;15569;42.652;23.040;2023-05-14T09:12:01;20.13;;;9.20;;
28304;SDS011;15569;42.652;23.040;2023-05-14T09:14:26;19.23;;;9.52;;
28304;SDS011;15569;42.652;23.040;2023-05-14T09:16:51;41.95;;;18.98;;
28304;SDS011;15569;42.652;23.040;2023-05-14T09:19:18;49.75;;;21.67;;
28304;SDS011;15569;42.652;23.040;2023-05-14T09:21:45;19.52;;;10.02;;
28304;SDS011;15569;42.652;23.040;2023-05-14T09:24:22;31.77;;;15.48;;
28304;SDS011;15569;42.652;23.040;2023-05-14T09:26:52;20.20;;;11.13;;
28304;SDS011;15569;42.652;23.040;2023-05-14T09:31:44;12.05;;;7.60;;
28304;SDS011;15569;42.652;23.040;2023-05-14T09:34:09;11.48;;;6.93;;
28304;SDS011;15569;42.652;23.040;2023-05-14T09:36:35;10.20;;;7.03;;
28304;SDS011;15569;42.652;23.040;2023-05-14T09:39:04;14.00;;;6.90;;
28304;SDS011;15569;42.652;23.040;2023-05-14T09:41:29;14.77;;;7.93;;
28304;SDS011;15569;42.652;23.040;2023-05-14T09:43:55;22.73;;;12.13;;
28304;SDS011;15569;42.652;23.040;2023-05-14T09:46:21;26.98;;;14.57;;
28304;SDS011;15569;42.652;23.040;2023-05-14T09:48:47;35.17;;;16.92;;
28304;SDS011;15569;42.652;23.040;2023-05-14T09:51:13;29.77;;;12.90;;
28304;SDS011;15569;42.652;23.040;2023-05-14T09:53:39;83.30;;;32.25;;
28304;SDS011;15569;42.652;23.040;2023-05-14T09:56:05;25.40;;;10.93;;
28304;SDS011;15569;42.652;23.040;2023-05-14T09:58:31;15.18;;;8.68;;
28304;SDS011;15569;42.652;23.040;2023-05-14T10:00:57;36.40;;;14.63;;
28304;SDS011;15569;42.652;23.040;2023-05-14T10:03:24;121.35;;;38.10;;
28304;SDS011;15569;42.652;23.040;2023-05-14T10:05:51;41.20;;;17.27;;
28304;SDS011;15569;42.652;23.040;2023-05-14T10:08:26;77.00;;;25.10;;
28304;SDS011;15569;42.652;23.040;2023-05-14T10:10:54;42.40;;;15.38;;
28304;SDS011;15569;42.652;23.040;2023-05-14T10:13:23;93.00;;;31.55;;
28304;SDS011;15569;42.652;23.040;2023-05-14T10:16:03;25.23;;;12.85;;
28304;SDS011;15569;42.652;23.040;2023-05-14T10:18:34;38.97;;;17.35;;
28304;SDS011;15569;42.652;23.040;2023-05-14T10:21:04;17.02;;;11.07;;
28304;SDS011;15569;42.652;23.040;2023-05-14T10:23:30;26.35;;;12.68;;
28304;SDS011;15569;42.652;23.040;2023-05-14T10:25:57;48.22;;;21.00;;
28304;SDS011;15569;42.652;23.040;2023-05-14T10:28:23;25.92;;;13.43;;
28304;SDS011;15569;42.652;23.040;2023-05-14T10:30:49;17.95;;;8.55;;
28304;SDS011;15569;42.652;23.040;2023-05-14T10:33:15;18.63;;;9.95;;
28304;SDS011;15569;42.652;23.040;2023-05-14T10:35:55;30.05;;;15.02;;
28304;SDS011;15569;42.652;23.040;2023-05-14T10:38:21;19.00;;;11.63;;
28304;SDS011;15569;42.652;23.040;2023-05-14T10:40:52;29.20;;;13.93;;
28304;SDS011;15569;42.652;23.040;2023-05-14T10:43:19;28.05;;;10.65;;
28304;SDS011;15569;42.652;23.040;2023-05-14T10:45:45;19.45;;;8.40;;
28304;SDS011;15569;42.652;23.040;2023-05-14T10:48:11;14.57;;;7.95;;
28304;SDS011;15569;42.652;23.040;2023-05-14T10:50:36;12.35;;;8.05;;
28304;SDS011;15569;42.652;23.040;2023-05-14T10:53:02;12.80;;;8.07;;
28304;SDS011;15569;42.652;23.040;2023-05-14T10:55:28;17.83;;;10.38;;
28304;SDS011;15569;42.652;23.040;2023-05-14T10:57:53;19.42;;;9.30;;
28304;SDS011;15569;42.652;23.040;2023-05-14T11:00:22;13.73;;;8.97;;
28304;SDS011;15569;42.652;23.040;2023-05-14T11:02:49;10.68;;;7.72;;
28304;SDS011;15569;42.652;23.040;2023-05-14T11:05:20;20.33;;;10.65;;
28304;SDS011;15569;42.652;23.040;2023-05-14T11:07:46;11.90;;;8.80;;
28304;SDS011;15569;42.652;23.040;2023-05-14T11:10:14;26.42;;;11.98;;
28304;SDS011;15569;42.652;23.040;2023-05-14T11:12:44;19.40;;;10.93;;
28304;SDS011;15569;42.652;23.040;2023-05-14T11:15:15;16.15;;;8.15;;
28304;SDS011;15569;42.652;23.040;2023-05-14T11:17:42;12.50;;;7.85;;
28304;SDS011;15569;42.652;23.040;2023-05-14T11:20:09;12.50;;;8.05;;
28304;SDS011;15569;42.652;23.040;2023-05-14T11:22:36;10.77;;;6.95;;
28304;SDS011;15569;42.652;23.040;2023-05-14T11:25:03;10.27;;;7.03;;
28304;SDS011;15569;42.652;23.040;2023-05-14T11:27:29;9.32;;;5.88;;
28304;SDS011;15569;42.652;23.040;2023-05-14T11:29:56;8.23;;;5.80;;
28304;SDS011;15569;42.652;23.040;2023-05-14T11:32:22;35.42;;;13.85;;
28304;SDS011;15569;42.652;23.040;2023-05-14T11:34:48;21.52;;;10.77;;
28304;SDS011;15569;42.652;23.040;2023-05-14T11:37:14;23.60;;;13.00;;
28304;SDS011;15569;42.652;23.040;2023-05-14T11:40:14;15.88;;;8.70;;
28304;SDS011;15569;42.652;23.040;2023-05-14T11:42:33;24.60;;;12.48;;
28304;SDS011;15569;42.652;23.040;2023-05-14T11:45:00;39.15;;;19.92;;
28304;SDS011;15569;42.652;23.040;2023-05-14T11:47:26;42.05;;;18.92;;
28304;SDS011;15569;42.652;23.040;2023-05-14T11:49:53;17.77;;;10.40;;
28304;SDS011;15569;42.652;23.040;2023-05-14T11:52:19;38.22;;;16.55;;
28304;SDS011;15569;42.652;23.040;2023-05-14T11:54:46;26.25;;;13.40;;
28304;SDS011;15569;42.652;23.040;2023-05-14T11:57:12;24.65;;;14.40;;
28304;SDS011;15569;42.652;23.040;2023-05-14T11:59:40;15.27;;;9.00;;
28304;SDS011;15569;42.652;23.040;2023-05-14T12:02:09;34.30;;;16.33;;
28304;SDS011;15569;42.652;23.040;2023-05-14T12:04:43;31.63;;;16.25;;
28304;SDS011;15569;42.652;23.040;2023-05-14T12:07:15;54.05;;;21.75;;
28304;SDS011;15569;42.652;23.040;2023-05-14T12:09:45;17.13;;;9.38;;
28304;SDS011;15569;42.652;23.040;2023-05-14T12:12:15;11.55;;;7.85;;
28304;SDS011;15569;42.652;23.040;2023-05-14T12:14:42;14.18;;;8.88;;
28304;SDS011;15569;42.652;23.040;2023-05-14T12:17:19;11.48;;;8.60;;
28304;SDS011;15569;42.652;23.040;2023-05-14T12:19:46;11.23;;;6.70;;
28304;SDS011;15569;42.652;23.040;2023-05-14T12:22:13;7.53;;;5.05;;
28304;SDS011;15569;42.652;23.040;2023-05-14T12:27:23;6.88;;;5.38;;
28304;SDS011;15569;42.652;23.040;2023-05-14T12:30:02;8.77;;;5.80;;
28304;SDS011;15569;42.652;23.040;2023-05-14T12:32:32;7.60;;;3.88;;
28304;SDS011;15569;42.652;23.040;2023-05-14T12:34:58;5.97;;;3.90;;
28304;SDS011;15569;42.652;23.040;2023-05-14T12:37:25;7.45;;;3.60;;
28304;SDS011;15569;42.652;23.040;2023-05-14T12:39:50;9.05;;;3.53;;
28304;SDS011;15569;42.652;23.040;2023-05-14T12:42:16;11.07;;;4.60;;
28304;SDS011;15569;42.652;23.040;2023-05-14T12:44:41;6.30;;;3.70;;
28304;SDS011;15569;42.652;23.040;2023-05-14T12:47:06;7.13;;;3.95;;
28304;SDS011;15569;42.652;23.040;2023-05-14T12:49:32;6.50;;;3.55;;
28304;SDS011;15569;42.652;23.040;2023-05-14T12:51:58;9.23;;;4.45;;
28304;SDS011;15569;42.652;23.040;2023-05-14T12:54:23;10.90;;;3.85;;
28304;SDS011;15569;42.652;23.040;2023-05-14T12:56:48;5.65;;;3.17;;
28304;SDS011;15569;42.652;23.040;2023-05-14T12:59:14;8.32;;;3.30;;
28304;SDS011;15569;42.652;23.040;2023-05-14T13:01:40;12.60;;;4.30;;
28304;SDS011;15569;42.652;23.040;2023-05-14T13:04:05;10.32;;;4.63;;
28304;SDS011;15569;42.652;23.040;2023-05-14T13:06:31;5.55;;;3.83;;
28304;SDS011;15569;42.652;23.040;2023-05-14T13:08:57;7.70;;;3.60;;
28304;SDS011;15569;42.652;23.040;2023-05-14T13:11:25;8.57;;;4.07;;
28304;SDS011;15569;42.652;23.040;2023-05-14T13:13:53;7.97;;;4.20;;
28304;SDS011;15569;42.652;23.040;2023-05-14T13:16:19;10.57;;;4.13;;
28304;SDS011;15569;42.652;23.040;2023-05-14T13:18:44;6.70;;;3.95;;
28304;SDS011;15569;42.652;23.040;2023-05-14T13:21:09;6.88;;;4.53;;
28304;SDS011;15569;42.652;23.040;2023-05-14T13:23:36;13.60;;;5.07;;
28304;SDS011;15569;42.652;23.040;2023-05-14T13:26:02;7.15;;;4.35;;
28304;SDS011;15569;42.652;23.040;2023-05-14T13:28:27;6.97;;;4.47;;
28304;SDS011;15569;42.652;23.040;2023-05-14T13:31:05;9.60;;;4.60;;
28304;SDS011;15569;42.652;23.040;2023-05-14T13:33:36;13.93;;;5.22;;
28304;SDS011;15569;42.652;23.040;2023-05-14T13:36:04;6.43;;;4.27;;
28304;SDS011;15569;42.652;23.040;2023-05-14T13:38:30;18.10;;;5.57;;
28304;SDS011;15569;42.652;23.040;2023-05-14T13:40:56;10.63;;;4.97;;
28304;SDS011;15569;42.652;23.040;2023-05-14T13:43:25;8.25;;;5.13;;
28304;SDS011;15569;42.652;23.040;2023-05-14T13:45:51;10.70;;;4.28;;
28304;SDS011;15569;42.652;23.040;2023-05-14T13:48:16;6.22;;;4.55;;
28304;SDS011;15569;42.652;23.040;2023-05-14T13:50:42;9.00;;;5.18;;
28304;SDS011;15569;42.652;23.040;2023-05-14T13:53:07;8.02;;;4.90;;
28304;SDS011;15569;42.652;23.040;2023-05-14T13:55:32;6.13;;;4.32;;
28304;SDS011;15569;42.652;23.040;2023-05-14T13:58:00;9.55;;;4.65;;
28304;SDS011;15569;42.652;23.040;2023-05-14T14:00:26;7.03;;;4.15;;
28304;SDS011;15569;42.652;23.040;2023-05-14T14:02:51;10.45;;;5.45;;
28304;SDS011;15569;42.652;23.040;2023-05-14T14:05:17;7.22;;;5.05;;
28304;SDS011;15569;42.652;23.040;2023-05-14T14:07:42;11.25;;;5.72;;
28304;SDS011;15569;42.652;23.040;2023-05-14T14:10:08;12.35;;;6.20;;
28304;SDS011;15569;42.652;23.040;2023-05-14T14:12:36;13.52;;;5.88;;
28304;SDS011;15569;42.652;23.040;2023-05-14T14:15:02;16.77;;;6.75;;
28304;SDS011;15569;42.652;23.040;2023-05-14T14:17:28;23.58;;;9.10;;
28304;SDS011;15569;42.652;23.040;2023-05-14T14:19:53;17.13;;;9.15;;
28304;SDS011;15569;42.652;23.040;2023-05-14T14:22:18;14.90;;;7.15;;
28304;SDS011;15569;42.652;23.040;2023-05-14T14:24:44;10.20;;;5.60;;
28304;SDS011;15569;42.652;23.040;2023-05-14T14:27:10;26.63;;;5.72;;
28304;SDS011;15569;42.652;23.040;2023-05-14T14:29:35;11.52;;;5.30;;
28304;SDS011;15569;42.652;23.040;2023-05-14T14:32:01;10.43;;;4.90;;
28304;SDS011;15569;42.652;23.040;2023-05-14T14:34:27;11.75;;;5.30;;
28304;SDS011;15569;42.652;23.040;2023-05-14T14:36:52;13.25;;;6.07;;